sensor_id;sensor_type;location;lat;lon;timestamp;P1;durP1;ratioP1;P2;durP2;ratioP2
22382;SDS011;11359;45.802;13.530;2022-10-18T00:00:58;4.22;;;3.83;;
22382;SDS011;11359;45.802;13.530;2022-10-18T00:03:24;4.22;;;3.83;;
22382;SDS011;11359;45.802;13.530;2022-10-18T00:05:50;4.32;;;3.92;;
22382;SDS011;11359;45.802;13.530;2022-10-18T00:08:16;3.97;;;3.58;;
22382;SDS011;11359;45.802;13.530;2022-10-18T00:10:42;3.92;;;3.47;;
22382;SDS011;11359;45.802;13.530;2022-10-18T00:13:08;3.67;;;3.33;;
22382;SDS011;11359;45.802;13.530;2022-10-18T00:15:34;3.70;;;3.30;;
22382;SDS011;11359;45.802;13.530;2022-10-18T00:17:59;3.50;;;3.20;;
22382;SDS011;11359;45.802;13.530;2022-10-18T00:20:25;3.80;;;3.50;;
22382;SDS011;11359;45.802;13.530;2022-10-18T00:22:51;3.40;;;3.10;;
22382;SDS011;11359;45.802;13.530;2022-10-18T00:25:17;3.85;;;3.55;;
22382;SDS011;11359;45.802;13.530;2022-10-18T00:27:42;3.30;;;3.00;;
22382;SDS011;11359;45.802;13.530;2022-10-18T00:30:08;3.40;;;3.10;;
22382;SDS011;11359;45.802;13.530;2022-10-18T00:32:35;4.10;;;3.70;;
22382;SDS011;11359;45.802;13.530;2022-10-18T00:35:05;4.30;;;3.90;;
22382;SDS011;11359;45.802;13.530;2022-10-18T00:37:32;4.38;;;3.95;;
22382;SDS011;11359;45.802;13.530;2022-10-18T00:39:58;3.75;;;3.33;;
22382;SDS011;11359;45.802;13.530;2022-10-18T00:42:26;4.15;;;3.75;;
22382;SDS011;11359;45.802;13.530;2022-10-18T00:45:15;4.20;;;3.80;;
22382;SDS011;11359;45.802;13.530;2022-10-18T00:47:44;3.80;;;3.40;;
22382;SDS011;11359;45.802;13.530;2022-10-18T00:50:15;4.43;;;3.75;;
22382;SDS011;11359;45.802;13.530;2022-10-18T00:52:43;4.10;;;3.50;;
22382;SDS011;11359;45.802;13.530;2022-10-18T00:55:12;4.47;;;4.07;;
22382;SDS011;11359;45.802;13.530;2022-10-18T00:57:38;4.30;;;3.90;;
22382;SDS011;11359;45.802;13.530;2022-10-18T01:00:06;4.55;;;4.10;;
22382;SDS011;11359;45.802;13.530;2022-10-18T01:02:34;4.10;;;3.70;;
22382;SDS011;11359;45.802;13.530;2022-10-18T01:05:05;4.30;;;3.60;;
22382;SDS011;11359;45.802;13.530;2022-10-18T01:10:26;4.30;;;3.90;;
22382;SDS011;11359;45.802;13.530;2022-10-18T01:15:50;4.07;;;3.47;;
22382;SDS011;11359;45.802;13.530;2022-10-18T01:29:39;3.90;;;3.50;;
22382;SDS011;11359;45.802;13.530;2022-10-18T01:32:23;3.38;;;3.03;;
22382;SDS011;11359;45.802;13.530;2022-10-18T01:34:58;3.42;;;3.13;;
22382;SDS011;11359;45.802;13.530;2022-10-18T01:37:27;3.80;;;3.42;;
22382;SDS011;11359;45.802;13.530;2022-10-18T01:39:55;3.67;;;3.22;;
22382;SDS011;11359;45.802;13.530;2022-10-18T01:42:23;3.75;;;3.28;;
22382;SDS011;11359;45.802;13.530;2022-10-18T01:44:50;3.42;;;3.13;;
22382;SDS011;11359;45.802;13.530;2022-10-18T01:47:17;4.10;;;3.65;;
22382;SDS011;11359;45.802;13.530;2022-10-18T01:49:44;4.05;;;3.40;;
22382;SDS011;11359;45.802;13.530;2022-10-18T01:52:13;3.42;;;3.13;;
22382;SDS011;11359;45.802;13.530;2022-10-18T01:54:43;4.57;;;3.63;;
22382;SDS011;11359;45.802;13.530;2022-10-18T02:02:56;3.90;;;3.50;;
22382;SDS011;11359;45.802;13.530;2022-10-18T02:05:34;4.07;;;3.60;;
22382;SDS011;11359;45.802;13.530;2022-10-18T02:11:03;4.18;;;3.65;;
22382;SDS011;11359;45.802;13.530;2022-10-18T02:13:43;3.95;;;3.55;;
22382;SDS011;11359;45.802;13.530;2022-10-18T02:16:12;4.63;;;4.10;;
22382;SDS011;11359;45.802;13.530;2022-10-18T02:21:48;4.53;;;4.13;;
22382;SDS011;11359;45.802;13.530;2022-10-18T02:24:15;4.53;;;4.13;;
22382;SDS011;11359;45.802;13.530;2022-10-18T02:26:43;4.47;;;3.90;;
22382;SDS011;11359;45.802;13.530;2022-10-18T02:29:09;4.50;;;4.10;;
22382;SDS011;11359;45.802;13.530;2022-10-18T02:31:39;4.53;;;4.10;;
22382;SDS011;11359;45.802;13.530;2022-10-18T02:37:06;4.57;;;4.17;;
22382;SDS011;11359;45.802;13.530;2022-10-18T02:39:36;4.35;;;3.90;;
22382;SDS011;11359;45.802;13.530;2022-10-18T02:42:08;6.10;;;4.15;;
22382;SDS011;11359;45.802;13.530;2022-10-18T02:44:35;4.38;;;3.97;;
22382;SDS011;11359;45.802;13.530;2022-10-18T02:47:01;4.88;;;4.32;;
22382;SDS011;11359;45.802;13.530;2022-10-18T02:49:27;4.78;;;4.25;;
22382;SDS011;11359;45.802;13.530;2022-10-18T02:51:53;4.95;;;4.40;;
22382;SDS011;11359;45.802;13.530;2022-10-18T02:54:19;4.82;;;4.30;;
22382;SDS011;11359;45.802;13.530;2022-10-18T02:56:44;4.55;;;4.15;;
22382;SDS011;11359;45.802;13.530;2022-10-18T02:59:10;4.88;;;4.38;;
22382;SDS011;11359;45.802;13.530;2022-10-18T03:01:36;5.95;;;5.35;;
22382;SDS011;11359;45.802;13.530;2022-10-18T03:04:02;4.68;;;4.28;;
22382;SDS011;11359;45.802;13.530;2022-10-18T03:06:28;4.88;;;4.40;;
22382;SDS011;11359;45.802;13.530;2022-10-18T03:08:54;4.22;;;3.72;;
22382;SDS011;11359;45.802;13.530;2022-10-18T03:11:20;5.18;;;4.38;;
22382;SDS011;11359;45.802;13.530;2022-10-18T03:13:46;4.20;;;3.80;;
22382;SDS011;11359;45.802;13.530;2022-10-18T03:16:14;4.30;;;3.83;;
22382;SDS011;11359;45.802;13.530;2022-10-18T03:18:40;3.80;;;3.40;;
22382;SDS011;11359;45.802;13.530;2022-10-18T03:21:06;3.42;;;3.08;;
22382;SDS011;11359;45.802;13.530;2022-10-18T03:23:32;3.95;;;3.55;;
22382;SDS011;11359;45.802;13.530;2022-10-18T03:25:58;4.20;;;3.80;;
22382;SDS011;11359;45.802;13.530;2022-10-18T03:28:23;4.30;;;3.65;;
22382;SDS011;11359;45.802;13.530;2022-10-18T03:30:49;4.35;;;3.95;;
22382;SDS011;11359;45.802;13.530;2022-10-18T03:33:15;3.85;;;3.45;;
22382;SDS011;11359;45.802;13.530;2022-10-18T03:35:40;3.80;;;3.38;;
22382;SDS011;11359;45.802;13.530;2022-10-18T03:38:06;3.75;;;3.35;;
22382;SDS011;11359;45.802;13.530;2022-10-18T03:40:32;4.20;;;3.80;;
22382;SDS011;11359;45.802;13.530;2022-10-18T03:42:58;4.47;;;4.07;;
22382;SDS011;11359;45.802;13.530;2022-10-18T03:45:24;4.43;;;4.03;;
22382;SDS011;11359;45.802;13.530;2022-10-18T03:47:50;4.40;;;4.00;;
22382;SDS011;11359;45.802;13.530;2022-10-18T03:50:15;5.43;;;4.65;;
22382;SDS011;11359;45.802;13.530;2022-10-18T03:52:41;4.68;;;4.13;;
22382;SDS011;11359;45.802;13.530;2022-10-18T03:55:07;4.32;;;3.78;;
22382;SDS011;11359;45.802;13.530;2022-10-18T03:57:32;4.47;;;3.90;;
22382;SDS011;11359;45.802;13.530;2022-10-18T03:59:58;4.45;;;4.00;;
22382;SDS011;11359;45.802;13.530;2022-10-18T04:02:24;4.35;;;3.95;;
22382;SDS011;11359;45.802;13.530;2022-10-18T04:04:50;4.47;;;3.65;;
22382;SDS011;11359;45.802;13.530;2022-10-18T04:07:16;3.67;;;3.28;;
22382;SDS011;11359;45.802;13.530;2022-10-18T04:09:42;4.07;;;3.67;;
22382;SDS011;11359;45.802;13.530;2022-10-18T04:12:08;3.55;;;3.25;;
22382;SDS011;11359;45.802;13.530;2022-10-18T04:14:34;3.45;;;3.15;;
22382;SDS011;11359;45.802;13.530;2022-10-18T04:17:00;3.78;;;3.47;;
22382;SDS011;11359;45.802;13.530;2022-10-18T04:19:25;3.50;;;3.15;;
22382;SDS011;11359;45.802;13.530;2022-10-18T04:21:51;3.20;;;2.90;;
22382;SDS011;11359;45.802;13.530;2022-10-18T04:24:18;3.10;;;2.80;;
22382;SDS011;11359;45.802;13.530;2022-10-18T04:26:43;3.65;;;3.35;;
22382;SDS011;11359;45.802;13.530;2022-10-18T04:29:09;3.00;;;2.70;;
22382;SDS011;11359;45.802;13.530;2022-10-18T04:31:35;3.35;;;3.00;;
22382;SDS011;11359;45.802;13.530;2022-10-18T04:34:01;3.28;;;2.97;;
22382;SDS011;11359;45.802;13.530;2022-10-18T04:36:28;3.10;;;2.80;;
22382;SDS011;11359;45.802;13.530;2022-10-18T04:38:54;2.70;;;2.50;;
22382;SDS011;11359;45.802;13.530;2022-10-18T04:41:20;3.17;;;2.88;;
22382;SDS011;11359;45.802;13.530;2022-10-18T04:43:46;4.10;;;3.70;;
22382;SDS011;11359;45.802;13.530;2022-10-18T04:46:12;3.35;;;3.05;;
22382;SDS011;11359;45.802;13.530;2022-10-18T04:48:38;3.40;;;3.10;;
22382;SDS011;11359;45.802;13.530;2022-10-18T04:51:03;3.38;;;3.05;;
22382;SDS011;11359;45.802;13.530;2022-10-18T04:53:29;3.45;;;3.15;;
22382;SDS011;11359;45.802;13.530;2022-10-18T04:55:55;3.90;;;3.50;;
22382;SDS011;11359;45.802;13.530;2022-10-18T04:58:21;3.60;;;3.30;;
22382;SDS011;11359;45.802;13.530;2022-10-18T05:00:48;3.03;;;2.72;;
22382;SDS011;11359;45.802;13.530;2022-10-18T05:03:14;2.90;;;2.70;;
22382;SDS011;11359;45.802;13.530;2022-10-18T05:05:40;2.80;;;2.60;;
22382;SDS011;11359;45.802;13.530;2022-10-18T05:08:06;3.10;;;2.80;;
22382;SDS011;11359;45.802;13.530;2022-10-18T05:10:32;3.50;;;3.20;;
22382;SDS011;11359;45.802;13.530;2022-10-18T05:12:58;3.92;;;3.53;;
22382;SDS011;11359;45.802;13.530;2022-10-18T05:15:24;3.40;;;3.10;;
22382;SDS011;11359;45.802;13.530;2022-10-18T05:17:50;3.50;;;3.20;;
22382;SDS011;11359;45.802;13.530;2022-10-18T05:20:15;3.53;;;3.20;;
22382;SDS011;11359;45.802;13.530;2022-10-18T05:22:41;2.88;;;2.65;;
22382;SDS011;11359;45.802;13.530;2022-10-18T05:25:07;3.58;;;3.28;;
22382;SDS011;11359;45.802;13.530;2022-10-18T05:27:33;3.80;;;3.40;;
22382;SDS011;11359;45.802;13.530;2022-10-18T05:29:59;3.75;;;3.40;;
22382;SDS011;11359;45.802;13.530;2022-10-18T05:32:24;3.38;;;3.08;;
22382;SDS011;11359;45.802;13.530;2022-10-18T05:34:50;3.40;;;3.10;;
22382;SDS011;11359;45.802;13.530;2022-10-18T05:37:16;3.03;;;2.72;;
22382;SDS011;11359;45.802;13.530;2022-10-18T05:39:42;3.58;;;3.25;;
22382;SDS011;11359;45.802;13.530;2022-10-18T05:42:08;3.47;;;3.17;;
22382;SDS011;11359;45.802;13.530;2022-10-18T05:44:34;3.30;;;3.00;;
22382;SDS011;11359;45.802;13.530;2022-10-18T05:46:59;3.83;;;3.42;;
22382;SDS011;11359;45.802;13.530;2022-10-18T05:49:25;3.50;;;3.15;;
22382;SDS011;11359;45.802;13.530;2022-10-18T05:51:51;3.28;;;2.97;;
22382;SDS011;11359;45.802;13.530;2022-10-18T05:54:16;3.53;;;3.22;;
22382;SDS011;11359;45.802;13.530;2022-10-18T05:56:42;3.65;;;3.35;;
22382;SDS011;11359;45.802;13.530;2022-10-18T05:59:08;3.83;;;3.45;;
22382;SDS011;11359;45.802;13.530;2022-10-18T06:01:37;3.28;;;2.92;;
22382;SDS011;11359;45.802;13.530;2022-10-18T06:04:04;3.40;;;3.10;;
22382;SDS011;11359;45.802;13.530;2022-10-18T06:06:30;3.25;;;2.95;;
22382;SDS011;11359;45.802;13.530;2022-10-18T06:08:57;3.33;;;2.90;;
22382;SDS011;11359;45.802;13.530;2022-10-18T06:11:23;3.03;;;2.72;;
22382;SDS011;11359;45.802;13.530;2022-10-18T06:13:49;3.47;;;3.17;;
22382;SDS011;11359;45.802;13.530;2022-10-18T06:16:16;3.47;;;3.17;;
22382;SDS011;11359;45.802;13.530;2022-10-18T06:18:46;2.60;;;2.40;;
22382;SDS011;11359;45.802;13.530;2022-10-18T06:21:13;2.80;;;2.60;;
22382;SDS011;11359;45.802;13.530;2022-10-18T06:23:40;3.10;;;2.80;;
22382;SDS011;11359;45.802;13.530;2022-10-18T06:26:06;3.05;;;2.75;;
22382;SDS011;11359;45.802;13.530;2022-10-18T06:28:34;3.10;;;2.80;;
22382;SDS011;11359;45.802;13.530;2022-10-18T06:31:02;3.10;;;2.80;;
22382;SDS011;11359;45.802;13.530;2022-10-18T06:33:29;3.40;;;2.88;;
22382;SDS011;11359;45.802;13.530;2022-10-18T06:36:01;3.13;;;2.83;;
22382;SDS011;11359;45.802;13.530;2022-10-18T06:38:28;2.90;;;2.57;;
22382;SDS011;11359;45.802;13.530;2022-10-18T06:40:55;2.80;;;2.60;;
22382;SDS011;11359;45.802;13.530;2022-10-18T06:43:21;2.60;;;2.40;;
22382;SDS011;11359;45.802;13.530;2022-10-18T06:45:48;2.70;;;2.50;;
22382;SDS011;11359;45.802;13.530;2022-10-18T06:48:14;2.72;;;2.53;;
22382;SDS011;11359;45.802;13.530;2022-10-18T06:50:40;2.47;;;2.28;;
22382;SDS011;11359;45.802;13.530;2022-10-18T06:53:06;2.92;;;2.63;;
22382;SDS011;11359;45.802;13.530;2022-10-18T06:55:33;2.50;;;2.30;;
22382;SDS011;11359;45.802;13.530;2022-10-18T06:57:59;2.22;;;2.03;;
22382;SDS011;11359;45.802;13.530;2022-10-18T07:00:25;2.15;;;1.95;;
22382;SDS011;11359;45.802;13.530;2022-10-18T07:02:51;2.70;;;2.40;;
22382;SDS011;11359;45.802;13.530;2022-10-18T07:05:17;2.50;;;2.30;;
22382;SDS011;11359;45.802;13.530;2022-10-18T07:07:42;2.60;;;2.40;;
22382;SDS011;11359;45.802;13.530;2022-10-18T07:10:08;3.40;;;3.00;;
22382;SDS011;11359;45.802;13.530;2022-10-18T07:12:34;3.53;;;3.22;;
22382;SDS011;11359;45.802;13.530;2022-10-18T07:14:59;3.67;;;3.28;;
22382;SDS011;11359;45.802;13.530;2022-10-18T07:17:25;4.00;;;3.60;;
22382;SDS011;11359;45.802;13.530;2022-10-18T07:19:51;3.42;;;3.13;;
22382;SDS011;11359;45.802;13.530;2022-10-18T07:22:17;3.13;;;2.83;;
22382;SDS011;11359;45.802;13.530;2022-10-18T07:24:42;3.60;;;3.30;;
22382;SDS011;11359;45.802;13.530;2022-10-18T07:27:08;3.58;;;3.15;;
22382;SDS011;11359;45.802;13.530;2022-10-18T07:29:34;3.35;;;3.05;;
22382;SDS011;11359;45.802;13.530;2022-10-18T07:32:02;3.72;;;3.33;;
22382;SDS011;11359;45.802;13.530;2022-10-18T07:34:28;3.85;;;3.50;;
22382;SDS011;11359;45.802;13.530;2022-10-18T07:36:54;4.38;;;3.88;;
22382;SDS011;11359;45.802;13.530;2022-10-18T07:39:20;3.58;;;3.28;;
22382;SDS011;11359;45.802;13.530;2022-10-18T07:41:45;3.85;;;3.45;;
22382;SDS011;11359;45.802;13.530;2022-10-18T07:44:11;3.13;;;2.83;;
22382;SDS011;11359;45.802;13.530;2022-10-18T07:46:37;3.42;;;3.13;;
22382;SDS011;11359;45.802;13.530;2022-10-18T07:49:02;3.28;;;2.95;;
22382;SDS011;11359;45.802;13.530;2022-10-18T07:51:28;2.70;;;2.40;;
22382;SDS011;11359;45.802;13.530;2022-10-18T07:53:56;3.20;;;2.90;;
22382;SDS011;11359;45.802;13.530;2022-10-18T07:56:23;3.10;;;2.80;;
22382;SDS011;11359;45.802;13.530;2022-10-18T07:58:49;3.10;;;2.80;;
22382;SDS011;11359;45.802;13.530;2022-10-18T08:01:16;3.53;;;2.65;;
22382;SDS011;11359;45.802;13.530;2022-10-18T08:03:43;2.40;;;2.20;;
22382;SDS011;11359;45.802;13.530;2022-10-18T08:06:09;2.47;;;2.28;;
22382;SDS011;11359;45.802;13.530;2022-10-18T08:08:37;2.92;;;2.60;;
22382;SDS011;11359;45.802;13.530;2022-10-18T08:11:04;2.45;;;2.25;;
22382;SDS011;11359;45.802;13.530;2022-10-18T08:13:31;2.35;;;2.15;;
22382;SDS011;11359;45.802;13.530;2022-10-18T08:15:58;3.42;;;3.00;;
22382;SDS011;11359;45.802;13.530;2022-10-18T08:18:29;3.30;;;3.00;;
22382;SDS011;11359;45.802;13.530;2022-10-18T08:20:55;4.85;;;4.18;;
22382;SDS011;11359;45.802;13.530;2022-10-18T08:23:23;4.80;;;4.38;;
22382;SDS011;11359;45.802;13.530;2022-10-18T08:25:48;4.18;;;3.78;;
22382;SDS011;11359;45.802;13.530;2022-10-18T08:28:14;4.82;;;3.97;;
22382;SDS011;11359;45.802;13.530;2022-10-18T08:30:41;4.50;;;4.10;;
22382;SDS011;11359;45.802;13.530;2022-10-18T08:33:07;4.00;;;3.60;;
22382;SDS011;11359;45.802;13.530;2022-10-18T08:35:33;4.15;;;3.75;;
22382;SDS011;11359;45.802;13.530;2022-10-18T08:37:59;4.05;;;3.63;;
22382;SDS011;11359;45.802;13.530;2022-10-18T08:40:25;4.03;;;3.63;;
22382;SDS011;11359;45.802;13.530;2022-10-18T08:45:26;3.72;;;3.38;;
22382;SDS011;11359;45.802;13.530;2022-10-18T08:47:52;3.92;;;3.50;;
22382;SDS011;11359;45.802;13.530;2022-10-18T08:50:39;4.10;;;3.67;;
22382;SDS011;11359;45.802;13.530;2022-10-18T08:53:27;3.50;;;3.15;;
22382;SDS011;11359;45.802;13.530;2022-10-18T08:58:31;3.35;;;3.05;;
22382;SDS011;11359;45.802;13.530;2022-10-18T09:06:46;9.38;;;7.82;;
22382;SDS011;11359;45.802;13.530;2022-10-18T09:09:31;7.50;;;6.80;;
22382;SDS011;11359;45.802;13.530;2022-10-18T09:19:50;7.57;;;6.78;;
22382;SDS011;11359;45.802;13.530;2022-10-18T09:22:30;7.00;;;6.30;;
22382;SDS011;11359;45.802;13.530;2022-10-18T09:25:12;5.85;;;5.25;;
22382;SDS011;11359;45.802;13.530;2022-10-18T09:33:41;4.97;;;4.47;;
22382;SDS011;11359;45.802;13.530;2022-10-18T09:36:23;4.40;;;4.00;;
22382;SDS011;11359;45.802;13.530;2022-10-18T09:38:52;3.95;;;3.55;;
22382;SDS011;11359;45.802;13.530;2022-10-18T09:41:26;3.40;;;3.10;;
22382;SDS011;11359;45.802;13.530;2022-10-18T09:46:51;2.70;;;2.50;;
22382;SDS011;11359;45.802;13.530;2022-10-18T09:49:44;2.90;;;2.60;;
22382;SDS011;11359;45.802;13.530;2022-10-18T09:52:18;3.10;;;2.80;;
22382;SDS011;11359;45.802;13.530;2022-10-18T09:54:56;3.08;;;2.78;;
22382;SDS011;11359;45.802;13.530;2022-10-18T09:57:47;3.13;;;2.83;;
22382;SDS011;11359;45.802;13.530;2022-10-18T10:00:22;2.80;;;2.60;;
22382;SDS011;11359;45.802;13.530;2022-10-18T10:02:54;2.78;;;2.58;;
22382;SDS011;11359;45.802;13.530;2022-10-18T10:05:20;2.70;;;2.50;;
22382;SDS011;11359;45.802;13.530;2022-10-18T10:07:46;2.60;;;2.30;;
22382;SDS011;11359;45.802;13.530;2022-10-18T10:10:15;2.38;;;2.17;;
22382;SDS011;11359;45.802;13.530;2022-10-18T10:12:44;2.40;;;2.20;;
22382;SDS011;11359;45.802;13.530;2022-10-18T10:26:21;2.55;;;2.35;;
22382;SDS011;11359;45.802;13.530;2022-10-18T10:28:49;2.45;;;2.25;;
22382;SDS011;11359;45.802;13.530;2022-10-18T10:31:31;3.15;;;2.85;;
22382;SDS011;11359;45.802;13.530;2022-10-18T10:34:02;3.38;;;3.08;;
22382;SDS011;11359;45.802;13.530;2022-10-18T10:36:30;4.18;;;3.00;;
22382;SDS011;11359;45.802;13.530;2022-10-18T10:39:13;3.05;;;2.75;;
22382;SDS011;11359;45.802;13.530;2022-10-18T10:41:44;2.63;;;2.42;;
22382;SDS011;11359;45.802;13.530;2022-10-18T10:44:23;2.58;;;2.38;;
22382;SDS011;11359;45.802;13.530;2022-10-18T10:46:51;2.47;;;2.28;;
22382;SDS011;11359;45.802;13.530;2022-10-18T10:49:22;2.45;;;2.25;;
22382;SDS011;11359;45.802;13.530;2022-10-18T10:51:55;3.47;;;3.17;;
22382;SDS011;11359;45.802;13.530;2022-10-18T10:54:24;3.40;;;3.10;;
22382;SDS011;11359;45.802;13.530;2022-10-18T11:04:44;4.43;;;3.97;;
22382;SDS011;11359;45.802;13.530;2022-10-18T11:20:42;3.97;;;3.58;;
22382;SDS011;11359;45.802;13.530;2022-10-18T11:23:15;4.20;;;3.80;;
22382;SDS011;11359;45.802;13.530;2022-10-18T11:38:55;6.75;;;6.05;;
22382;SDS011;11359;45.802;13.530;2022-10-18T11:41:37;6.53;;;5.93;;
22382;SDS011;11359;45.802;13.530;2022-10-18T11:52:10;7.68;;;6.97;;
22382;SDS011;11359;45.802;13.530;2022-10-18T11:55:00;8.57;;;7.78;;
22382;SDS011;11359;45.802;13.530;2022-10-18T12:05:43;10.90;;;9.80;;
22382;SDS011;11359;45.802;13.530;2022-10-18T12:08:15;12.32;;;11.02;;
22382;SDS011;11359;45.802;13.530;2022-10-18T12:10:51;12.57;;;11.05;;
22382;SDS011;11359;45.802;13.530;2022-10-18T12:13:35;13.25;;;11.85;;
22382;SDS011;11359;45.802;13.530;2022-10-18T12:16:18;13.40;;;12.00;;
22382;SDS011;11359;45.802;13.530;2022-10-18T12:18:53;12.60;;;11.30;;
22382;SDS011;11359;45.802;13.530;2022-10-18T12:21:26;11.65;;;10.48;;
22382;SDS011;11359;45.802;13.530;2022-10-18T12:23:57;12.95;;;11.02;;
22382;SDS011;11359;45.802;13.530;2022-10-18T12:26:30;11.52;;;10.32;;
22382;SDS011;11359;45.802;13.530;2022-10-18T12:29:11;12.63;;;11.30;;
22382;SDS011;11359;45.802;13.530;2022-10-18T12:31:50;11.48;;;10.27;;
22382;SDS011;11359;45.802;13.530;2022-10-18T12:39:51;10.02;;;8.98;;
22382;SDS011;11359;45.802;13.530;2022-10-18T12:42:23;12.30;;;11.00;;
22382;SDS011;11359;45.802;13.530;2022-10-18T12:47:40;9.10;;;8.15;;
22382;SDS011;11359;45.802;13.530;2022-10-18T12:50:17;8.77;;;7.88;;
22382;SDS011;11359;45.802;13.530;2022-10-18T12:52:59;8.93;;;8.02;;
22382;SDS011;11359;45.802;13.530;2022-10-18T12:55:47;8.38;;;7.57;;
22382;SDS011;11359;45.802;13.530;2022-10-18T12:58:30;9.15;;;8.25;;
22382;SDS011;11359;45.802;13.530;2022-10-18T13:01:00;7.32;;;6.63;;
22382;SDS011;11359;45.802;13.530;2022-10-18T13:06:17;9.55;;;8.20;;
22382;SDS011;11359;45.802;13.530;2022-10-18T13:08:43;13.32;;;11.32;;
22382;SDS011;11359;45.802;13.530;2022-10-18T13:22:17;10.57;;;9.48;;
22382;SDS011;11359;45.802;13.530;2022-10-18T13:25:21;9.23;;;8.30;;
22382;SDS011;11359;45.802;13.530;2022-10-18T13:33:17;7.15;;;6.45;;
22382;SDS011;11359;45.802;13.530;2022-10-18T13:41:01;5.65;;;5.10;;
22382;SDS011;11359;45.802;13.530;2022-10-18T13:57:16;5.20;;;4.70;;
22382;SDS011;11359;45.802;13.530;2022-10-18T14:05:47;6.15;;;5.50;;
22382;SDS011;11359;45.802;13.530;2022-10-18T14:11:33;5.63;;;5.03;;
22382;SDS011;11359;45.802;13.530;2022-10-18T14:13:54;6.00;;;5.40;;
22382;SDS011;11359;45.802;13.530;2022-10-18T14:16:35;5.10;;;4.60;;
22382;SDS011;11359;45.802;13.530;2022-10-18T14:22:06;6.40;;;5.80;;
22382;SDS011;11359;45.802;13.530;2022-10-18T14:24:37;5.38;;;4.78;;
22382;SDS011;11359;45.802;13.530;2022-10-18T14:27:08;6.53;;;5.82;;
22382;SDS011;11359;45.802;13.530;2022-10-18T14:32:45;7.10;;;6.32;;
22382;SDS011;11359;45.802;13.530;2022-10-18T14:35:17;8.93;;;7.57;;
22382;SDS011;11359;45.802;13.530;2022-10-18T14:37:48;7.95;;;7.15;;
22382;SDS011;11359;45.802;13.530;2022-10-18T14:40:35;7.55;;;6.75;;
22382;SDS011;11359;45.802;13.530;2022-10-18T14:45:33;5.53;;;5.03;;
22382;SDS011;11359;45.802;13.530;2022-10-18T14:48:15;7.82;;;7.00;;
22382;SDS011;11359;45.802;13.530;2022-10-18T14:50:56;6.68;;;6.05;;
22382;SDS011;11359;45.802;13.530;2022-10-18T14:53:24;5.40;;;4.90;;
22382;SDS011;11359;45.802;13.530;2022-10-18T14:55:59;6.13;;;5.53;;
22382;SDS011;11359;45.802;13.530;2022-10-18T14:58:30;5.28;;;4.78;;
22382;SDS011;11359;45.802;13.530;2022-10-18T15:00:56;4.78;;;4.32;;
22382;SDS011;11359;45.802;13.530;2022-10-18T15:03:23;6.35;;;5.50;;
22382;SDS011;11359;45.802;13.530;2022-10-18T15:08:26;4.63;;;4.22;;
22382;SDS011;11359;45.802;13.530;2022-10-18T15:10:58;4.57;;;4.18;;
22382;SDS011;11359;45.802;13.530;2022-10-18T15:13:24;5.97;;;4.80;;
22382;SDS011;11359;45.802;13.530;2022-10-18T15:15:50;6.72;;;5.97;;
22382;SDS011;11359;45.802;13.530;2022-10-18T15:18:23;6.40;;;5.70;;
22382;SDS011;11359;45.802;13.530;2022-10-18T15:23:35;5.13;;;4.63;;
22382;SDS011;11359;45.802;13.530;2022-10-18T15:26:02;4.78;;;4.38;;
22382;SDS011;11359;45.802;13.530;2022-10-18T15:28:35;5.75;;;5.03;;
22382;SDS011;11359;45.802;13.530;2022-10-18T15:31:05;5.40;;;4.72;;
22382;SDS011;11359;45.802;13.530;2022-10-18T15:33:40;4.75;;;4.25;;
22382;SDS011;11359;45.802;13.530;2022-10-18T15:36:07;4.53;;;4.13;;
22382;SDS011;11359;45.802;13.530;2022-10-18T15:38:34;4.50;;;3.40;;
22382;SDS011;11359;45.802;13.530;2022-10-18T15:41:34;4.15;;;3.75;;
22382;SDS011;11359;45.802;13.530;2022-10-18T15:44:06;4.43;;;3.85;;
22382;SDS011;11359;45.802;13.530;2022-10-18T15:47:08;4.35;;;3.95;;
22382;SDS011;11359;45.802;13.530;2022-10-18T15:54:54;4.57;;;3.70;;
22382;SDS011;11359;45.802;13.530;2022-10-18T15:57:21;4.32;;;3.85;;
22382;SDS011;11359;45.802;13.530;2022-10-18T15:59:50;4.43;;;3.53;;
22382;SDS011;11359;45.802;13.530;2022-10-18T16:02:18;4.18;;;3.67;;
22382;SDS011;11359;45.802;13.530;2022-10-18T16:04:44;3.92;;;3.53;;
22382;SDS011;11359;45.802;13.530;2022-10-18T16:07:11;4.93;;;4.18;;
22382;SDS011;11359;45.802;13.530;2022-10-18T16:09:37;5.35;;;4.57;;
22382;SDS011;11359;45.802;13.530;2022-10-18T16:12:03;5.38;;;4.25;;
22382;SDS011;11359;45.802;13.530;2022-10-18T16:14:29;4.32;;;3.92;;
22382;SDS011;11359;45.802;13.530;2022-10-18T16:17:00;5.57;;;4.70;;
22382;SDS011;11359;45.802;13.530;2022-10-18T16:19:27;4.85;;;4.10;;
22382;SDS011;11359;45.802;13.530;2022-10-18T16:21:54;4.30;;;3.75;;
22382;SDS011;11359;45.802;13.530;2022-10-18T16:24:19;4.47;;;4.07;;
22382;SDS011;11359;45.802;13.530;2022-10-18T16:26:46;4.68;;;4.13;;
22382;SDS011;11359;45.802;13.530;2022-10-18T16:29:13;4.47;;;4.00;;
22382;SDS011;11359;45.802;13.530;2022-10-18T16:31:45;4.20;;;3.63;;
22382;SDS011;11359;45.802;13.530;2022-10-18T16:34:11;5.63;;;4.35;;
22382;SDS011;11359;45.802;13.530;2022-10-18T16:36:38;4.68;;;4.13;;
22382;SDS011;11359;45.802;13.530;2022-10-18T16:39:05;5.13;;;4.35;;
22382;SDS011;11359;45.802;13.530;2022-10-18T16:41:36;5.75;;;4.68;;
22382;SDS011;11359;45.802;13.530;2022-10-18T16:44:02;4.75;;;4.05;;
22382;SDS011;11359;45.802;13.530;2022-10-18T16:46:29;5.50;;;4.25;;
22382;SDS011;11359;45.802;13.530;2022-10-18T16:48:57;5.30;;;4.30;;
22382;SDS011;11359;45.802;13.530;2022-10-18T16:51:23;5.22;;;4.40;;
22382;SDS011;11359;45.802;13.530;2022-10-18T16:53:49;4.95;;;4.43;;
22382;SDS011;11359;45.802;13.530;2022-10-18T16:56:48;5.32;;;4.68;;
22382;SDS011;11359;45.802;13.530;2022-10-18T16:59:08;5.15;;;4.45;;
22382;SDS011;11359;45.802;13.530;2022-10-18T17:01:41;6.10;;;4.65;;
22382;SDS011;11359;45.802;13.530;2022-10-18T17:04:07;5.97;;;5.35;;
22382;SDS011;11359;45.802;13.530;2022-10-18T17:06:33;5.72;;;4.38;;
22382;SDS011;11359;45.802;13.530;2022-10-18T17:08:58;4.72;;;4.22;;
22382;SDS011;11359;45.802;13.530;2022-10-18T17:11:25;5.65;;;4.88;;
22382;SDS011;11359;45.802;13.530;2022-10-18T17:13:51;5.72;;;4.80;;
22382;SDS011;11359;45.802;13.530;2022-10-18T17:18:46;5.78;;;4.85;;
22382;SDS011;11359;45.802;13.530;2022-10-18T17:21:12;5.35;;;4.53;;
22382;SDS011;11359;45.802;13.530;2022-10-18T17:23:37;6.65;;;5.70;;
22382;SDS011;11359;45.802;13.530;2022-10-18T17:26:03;6.30;;;5.30;;
22382;SDS011;11359;45.802;13.530;2022-10-18T17:28:29;6.35;;;5.25;;
22382;SDS011;11359;45.802;13.530;2022-10-18T17:30:54;5.30;;;4.75;;
22382;SDS011;11359;45.802;13.530;2022-10-18T17:33:20;5.13;;;4.63;;
22382;SDS011;11359;45.802;13.530;2022-10-18T17:35:46;4.88;;;4.38;;
22382;SDS011;11359;45.802;13.530;2022-10-18T17:38:12;5.78;;;4.95;;
22382;SDS011;11359;45.802;13.530;2022-10-18T17:40:41;5.65;;;5.05;;
22382;SDS011;11359;45.802;13.530;2022-10-18T17:43:07;5.07;;;4.30;;
22382;SDS011;11359;45.802;13.530;2022-10-18T17:45:34;5.93;;;4.70;;
22382;SDS011;11359;45.802;13.530;2022-10-18T17:47:59;5.30;;;4.60;;
22382;SDS011;11359;45.802;13.530;2022-10-18T17:50:25;5.97;;;4.93;;
22382;SDS011;11359;45.802;13.530;2022-10-18T17:52:51;5.30;;;4.57;;
22382;SDS011;11359;45.802;13.530;2022-10-18T17:55:16;5.70;;;4.75;;
22382;SDS011;11359;45.802;13.530;2022-10-18T17:57:42;6.18;;;5.20;;
22382;SDS011;11359;45.802;13.530;2022-10-18T18:00:09;5.80;;;4.90;;
22382;SDS011;11359;45.802;13.530;2022-10-18T18:02:36;6.22;;;5.05;;